Time;durP1;ratioP1;P1;durP2;ratioP2;P2;SDS_P1;SDS_P2;PMS_P1;PMS_P2;Temp;Humidity;BMP_temperature;BMP_pressure;BME280_temperature;BME280_humidity;BME280_pressure;Samples;Min_cycle;Max_cycle;Signal;HPM_P1;HPM_P2
2023/04/24 00:01:39;;;;;;;9.20;8.20;;;;;;;15.07;100.00;99179.19;181408;1260;57029;-62
2023/04/24 00:05:42;;;;;;;11.30;9.50;;;;;;;15.09;100.00;99169.02;181446;1260;43483;-62
2023/04/24 00:09:45;;;;;;;11.90;10.70;;;;;;;15.14;100.00;99158.44;181566;1260;43678;-62
2023/04/24 00:13:47;;;;;;;16.90;13.10;;;;;;;15.13;99.89;99157.31;181480;1260;43764;-62
2023/04/24 00:17:51;;;;;;;13.90;10.10;;;;;;;15.12;99.34;99152.18;181509;1259;42992;-62
2023/04/24 00:22:00;;;;;;;11.70;8.50;;;;;;;15.12;99.02;99143.78;181552;1259;58056;-62
2023/04/24 00:26:03;;;;;;;14.10;9.80;;;;;;;15.07;99.00;99133.52;181449;1259;43403;-62
2023/04/24 00:30:06;;;;;;;14.60;9.30;;;;;;;14.86;99.88;99127.98;181578;1259;43723;-63
2023/04/24 00:34:11;;;;;;;10.90;9.40;;;;;;;14.69;100.00;99123.98;181357;1259;43262;-62
2023/04/24 00:38:43;;;;;;;11.40;8.90;;;;;;;14.56;100.00;99121.40;181537;1259;43046;-62
2023/04/24 00:42:47;;;;;;;14.20;10.10;;;;;;;14.50;100.00;99122.12;181516;1259;57737;-62
2023/04/24 00:46:54;;;;;;;11.80;9.10;;;;;;;14.43;100.00;99125.21;181522;1259;43040;-62
2023/04/24 00:50:58;;;;;;;11.60;9.00;;;;;;;14.42;100.00;99119.97;181465;1259;43451;-62
2023/04/24 00:55:02;;;;;;;15.70;11.10;;;;;;;14.37;100.00;99112.39;181486;1259;43681;-62
2023/04/24 00:59:06;;;;;;;18.30;12.00;;;;;;;14.27;100.00;99108.96;181529;1259;43774;-62
2023/04/24 01:03:10;;;;;;;11.30;8.60;;;;;;;14.13;100.00;99104.11;181544;1259;58031;-62
2023/04/24 01:07:13;;;;;;;11.20;9.10;;;;;;;13.94;100.00;99099.98;181532;1259;43481;-62
2023/04/24 01:11:17;;;;;;;11.00;9.90;;;;;;;13.82;100.00;99100.13;181529;1260;43346;-62
2023/04/24 01:15:20;;;;;;;13.50;9.10;;;;;;;13.61;100.00;99094.83;181374;1259;49402;-62
2023/04/24 01:19:23;;;;;;;15.70;11.50;;;;;;;13.36;100.00;99093.21;181513;1260;43740;-62
2023/04/24 01:23:26;;;;;;;17.30;11.90;;;;;;;13.17;100.00;99091.51;181515;1259;58028;-61
2023/04/24 01:27:30;;;;;;;13.30;11.70;;;;;;;13.11;100.00;99078.44;181538;1259;43135;-62
2023/04/24 01:31:34;;;;;;;13.50;10.90;;;;;;;12.94;100.00;99076.13;181587;1259;43731;-62
2023/04/24 01:35:45;;;;;;;12.40;10.10;;;;;;;12.76;100.00;99075.04;181503;1260;43769;-62
2023/04/24 01:39:53;;;;;;;13.90;10.90;;;;;;;12.65;100.00;99070.18;181437;1260;43900;-62
2023/04/24 01:43:58;;;;;;;15.50;11.00;;;;;;;12.66;100.00;99060.81;181491;1259;57242;-62
2023/04/24 01:48:01;;;;;;;14.40;9.60;;;;;;;12.62;100.00;99058.13;181590;1259;43157;-62
2023/04/24 01:52:04;;;;;;;16.70;10.50;;;;;;;12.61;100.00;99058.92;181480;1259;42981;-62
2023/04/24 01:56:07;;;;;;;15.90;11.30;;;;;;;12.68;100.00;99060.41;181523;1259;43114;-62
2023/04/24 02:00:11;;;;;;;10.00;8.70;;;;;;;12.80;100.00;99055.42;181441;1260;43076;-62
2023/04/24 02:04:15;;;;;;;16.60;11.40;;;;;;;12.93;100.00;99049.67;181524;1259;58021;-62
2023/04/24 02:08:18;;;;;;;11.40;9.90;;;;;;;12.99;100.00;99042.95;181452;1259;43071;-62
2023/04/24 02:12:21;;;;;;;14.30;10.80;;;;;;;13.01;100.00;99033.14;181454;1259;42993;-62
2023/04/24 02:16:24;;;;;;;14.20;11.40;;;;;;;12.96;100.00;99023.94;181451;1259;43470;-62
2023/04/24 02:20:27;;;;;;;11.70;8.90;;;;;;;12.96;100.00;99014.84;181637;1259;43861;-62
2023/04/24 02:24:30;;;;;;;15.00;11.20;;;;;;;12.90;100.00;99010.55;181506;1259;58053;-62
2023/04/24 02:28:33;;;;;;;16.20;11.80;;;;;;;12.98;100.00;99010.40;181499;1259;43770;-62
2023/04/24 02:32:36;;;;;;;13.50;10.20;;;;;;;13.10;100.00;99007.98;181516;1259;42997;-62
2023/04/24 02:36:38;;;;;;;25.80;9.50;;;;;;;13.20;100.00;99000.66;181430;1259;44803;-63
2023/04/24 02:40:41;;;;;;;12.20;10.00;;;;;;;13.28;100.00;98992.86;181514;1259;43062;-62
2023/04/24 02:44:44;;;;;;;16.00;10.80;;;;;;;13.38;100.00;98989.81;181581;1259;57709;-62
2023/04/24 02:48:47;;;;;;;10.80;9.70;;;;;;;13.47;100.00;98986.51;181662;1259;43623;-62
2023/04/24 02:52:56;;;;;;;13.10;9.60;;;;;;;13.52;100.00;98987.54;181485;1259;43743;-63
2023/04/24 02:57:00;;;;;;;7.60;6.40;;;;;;;13.51;100.00;98987.89;181497;1259;43709;-63
2023/04/24 03:01:04;;;;;;;8.20;6.80;;;;;;;13.70;100.00;98990.58;181379;1259;43411;-63
2023/04/24 03:05:08;;;;;;;7.30;6.30;;;;;;;13.96;99.52;98991.77;181464;1259;58210;-63
2023/04/24 03:09:21;;;;;;;7.70;6.20;;;;;;;14.16;96.72;98997.19;181515;1260;43709;-64
2023/04/24 03:13:24;;;;;;;9.90;7.20;;;;;;;14.36;95.08;99004.84;181508;1259;43852;-63
2023/04/24 03:17:27;;;;;;;10.60;6.40;;;;;;;14.44;93.45;99001.38;181505;1259;43790;-63
2023/04/24 03:21:30;;;;;;;7.70;7.00;;;;;;;14.58;92.37;99004.05;181424;1259;43460;-63
2023/04/24 03:25:33;;;;;;;8.50;6.40;;;;;;;14.63;91.43;98998.77;181436;1259;57980;-63
2023/04/24 03:29:35;;;;;;;7.00;6.30;;;;;;;14.62;92.11;98992.26;181395;1259;43478;-63
2023/04/24 03:33:38;;;;;;;7.50;6.50;;;;;;;14.63;92.04;98987.48;181379;1260;43700;-64
2023/04/24 03:37:41;;;;;;;8.20;6.60;;;;;;;14.64;91.61;98990.59;181447;1260;43293;-63
2023/04/24 03:41:44;;;;;;;6.70;5.60;;;;;;;14.65;91.82;98986.28;181505;1259;43059;-63
2023/04/24 03:45:47;;;;;;;7.70;6.00;;;;;;;14.66;91.25;98991.73;181528;1259;58171;-63
2023/04/24 03:49:50;;;;;;;7.30;6.50;;;;;;;14.69;90.48;98994.06;181400;1259;43411;-63
2023/04/24 03:53:52;;;;;;;7.80;6.80;;;;;;;14.71;91.41;98998.57;181416;1259;43765;-63
2023/04/24 03:57:59;;;;;;;10.10;6.50;;;;;;;14.73;91.47;98995.68;181496;1259;43804;-63
2023/04/24 04:02:02;;;;;;;8.80;6.50;;;;;;;14.70;91.54;98988.77;181523;1259;43064;-63
2023/04/24 04:06:05;;;;;;;9.20;6.60;;;;;;;14.67;92.74;98988.63;181480;1259;58056;-63
2023/04/24 04:10:11;;;;;;;11.80;7.90;;;;;;;14.64;93.98;98982.64;181518;1259;43125;-62
2023/04/24 04:18:48;;;;;;;8.50;6.30;;;;;;;14.52;97.72;98994.54;181097;1260;44356;-85
2023/04/24 04:22:55;;;;;;;10.40;8.60;;;;;;;14.40;98.26;98991.85;181109;1260;85424;-63
2023/04/24 04:27:16;;;;;;;8.40;6.40;;;;;;;14.33;98.81;98993.19;181184;1258;85112;-63
2023/04/24 04:48:03;;;;;;;11.40;8.80;;;;;;;14.58;93.64;98995.82;181175;1263;43823;-62
2023/04/24 04:52:06;;;;;;;10.90;6.40;;;;;;;14.62;93.66;98994.81;181257;1264;58044;-62
2023/04/24 04:56:09;;;;;;;9.40;6.80;;;;;;;14.67;93.99;98998.27;181231;1264;43658;-62
2023/04/24 05:00:12;;;;;;;9.10;8.10;;;;;;;14.69;93.74;99001.38;181239;1263;43753;-62
2023/04/24 05:04:19;;;;;;;9.50;8.40;;;;;;;14.71;93.58;99006.73;181199;1264;43204;-62
2023/04/24 05:08:22;;;;;;;10.50;6.90;;;;;;;14.77;94.57;99015.52;181107;1265;43036;-62
2023/04/24 05:12:29;;;;;;;8.90;7.60;;;;;;;14.83;93.63;99023.17;181207;1264;58351;-62
2023/04/24 05:16:32;;;;;;;11.60;8.10;;;;;;;14.96;93.93;99028.45;181296;1264;43859;-62
2023/04/24 05:20:36;;;;;;;10.40;8.30;;;;;;;15.06;93.91;99034.52;181039;1262;81422;-90
2023/04/24 05:24:42;;;;;;;14.80;13.40;;;;;;;15.12;92.32;99035.85;180964;1264;43859;-91
2023/04/24 05:28:47;;;;;;;;;;;;;;;15.11;91.83;99042.94;180916;1263;44777;-89
2023/04/24 05:32:51;;;;;;;11.50;9.60;;;;;;;15.11;92.46;99056.58;180933;1262;60344;-90
2023/04/24 05:36:54;;;;;;;11.70;9.40;;;;;;;15.16;92.10;99057.84;180913;1263;44578;-89
2023/04/24 05:41:01;;;;;;;9.90;8.20;;;;;;;15.23;93.61;99057.48;180798;1263;43722;-89
2023/04/24 05:45:05;;;;;;;;;;;;;;;15.15;93.25;99063.69;180818;1265;44144;-90
2023/04/24 05:49:12;;;;;;;8.20;7.30;;;;;;;15.04;95.57;99067.45;181028;1264;43674;-86
2023/04/24 05:53:20;;;;;;;10.20;8.10;;;;;;;14.99;96.39;99064.53;180984;1265;57977;-90
2023/04/24 05:57:30;;;;;;;12.60;8.20;;;;;;;15.02;96.38;99060.42;180906;1262;43857;-90
2023/04/24 06:06:12;;;;;;;11.30;8.80;;;;;;;15.01;99.81;99064.81;181006;1263;44015;-89
2023/04/24 06:10:18;;;;;;;12.90;10.70;;;;;;;14.99;100.00;99058.94;180962;1263;44213;-90
2023/04/24 06:14:22;;;;;;;;;;;;;;;14.93;100.00;99052.88;180979;1263;59838;-88
2023/04/24 06:18:27;;;;;;;6.80;6.10;;;;;;;14.85;100.00;99058.98;180921;1263;43701;-91
2023/04/24 06:22:43;;;;;;;7.80;7.00;;;;;;;14.80;100.00;99052.85;180967;1263;43842;-91
2023/04/24 06:31:26;;;;;;;8.80;7.90;;;;;;;14.77;100.00;99054.99;181223;1262;83779;-63
2023/04/24 06:35:29;;;;;;;8.80;7.80;;;;;;;14.72;100.00;99063.98;181313;1262;58077;-63
2023/04/24 06:39:32;;;;;;;9.10;7.30;;;;;;;14.69;100.00;99067.05;181251;1262;43694;-63
2023/04/24 06:43:34;;;;;;;11.80;9.30;;;;;;;14.76;100.00;99075.95;181340;1262;43538;-63
2023/04/24 06:47:38;;;;;;;10.50;9.40;;;;;;;14.83;100.00;99075.47;181355;1262;43077;-63
2023/04/24 06:51:40;;;;;;;15.60;13.00;;;;;;;15.00;100.00;99087.20;181226;1263;43007;-63
2023/04/24 06:55:45;;;;;;;11.40;9.90;;;;;;;15.26;100.00;99086.15;181302;1262;57242;-63
2023/04/24 06:59:48;;;;;;;10.40;9.30;;;;;;;15.55;100.00;99083.39;181194;1262;43143;-63
2023/04/24 07:03:52;;;;;;;16.50;9.10;;;;;;;15.80;100.00;99079.26;181152;1262;167113;-63
2023/04/24 07:07:55;;;;;;;12.90;8.80;;;;;;;15.94;100.00;99077.38;181314;1262;43672;-63
2023/04/24 07:12:14;;;;;;;9.20;8.20;;;;;;;16.10;100.00;99077.37;181284;1262;43756;-63
2023/04/24 07:16:17;;;;;;;11.30;9.40;;;;;;;16.38;100.00;99073.90;181301;1262;57931;-63
2023/04/24 07:20:20;;;;;;;8.40;7.40;;;;;;;16.70;100.00;99077.81;181276;1262;43218;-63
2023/04/24 07:24:22;;;;;;;10.70;9.30;;;;;;;16.95;100.00;99077.63;181195;1264;42995;-63
2023/04/24 07:28:30;;;;;;;11.10;9.90;;;;;;;17.11;100.00;99075.59;181301;1263;43139;-63
2023/04/24 07:32:34;;;;;;;10.30;7.20;;;;;;;17.18;100.00;99075.09;181303;1262;43834;-64
2023/04/24 07:36:40;;;;;;;9.40;8.00;;;;;;;17.21;100.00;99079.85;181271;1262;56979;-64
2023/04/24 07:40:43;;;;;;;10.90;9.50;;;;;;;17.31;100.00;99083.95;181401;1260;43703;-64
2023/04/24 07:44:47;;;;;;;10.90;9.90;;;;;;;17.57;100.00;99080.31;181359;1262;43039;-64
2023/04/24 07:48:50;;;;;;;10.30;8.90;;;;;;;17.83;99.06;99080.51;181398;1262;43689;-64
2023/04/24 07:53:13;;;;;;;11.10;9.20;;;;;;;18.04;100.00;99084.92;181303;1262;43005;-64
2023/04/24 07:57:16;;;;;;;10.90;8.60;;;;;;;18.31;100.00;99082.84;181329;1262;58068;-64
2023/04/24 08:01:19;;;;;;;16.20;10.10;;;;;;;18.64;100.00;99082.40;181331;1265;43802;-64
2023/04/24 08:05:28;;;;;;;10.10;9.10;;;;;;;18.78;99.16;99086.08;181280;1264;43078;-64
2023/04/24 08:09:31;;;;;;;14.20;8.00;;;;;;;18.80;95.67;99079.20;181276;1263;43757;-64
2023/04/24 08:13:34;;;;;;;10.90;8.00;;;;;;;18.71;95.64;99083.48;181227;1263;43150;-64
2023/04/24 08:17:37;;;;;;;8.60;7.80;;;;;;;18.63;94.86;99082.40;181297;1264;58321;-64
2023/04/24 08:21:40;;;;;;;9.80;8.70;;;;;;;18.48;92.20;99087.21;181340;1263;43403;-64
2023/04/24 08:25:43;;;;;;;8.60;7.80;;;;;;;18.42;92.69;99084.97;181312;1262;43097;-64
2023/04/24 08:29:46;;;;;;;7.40;6.60;;;;;;;18.39;92.57;99086.74;181347;1264;43816;-63
2023/04/24 08:33:48;;;;;;;11.10;7.20;;;;;;;18.47;92.62;99085.46;181395;1260;43193;-63
2023/04/24 08:37:53;;;;;;;8.30;7.50;;;;;;;18.61;94.65;99084.60;181385;1262;58485;-62
2023/04/24 08:41:56;;;;;;;8.00;7.20;;;;;;;18.88;92.62;99080.19;181314;1262;43763;-62
2023/04/24 08:46:16;;;;;;;11.80;6.60;;;;;;;19.06;89.71;99079.09;181282;1260;43434;-62
2023/04/24 08:50:19;;;;;;;11.80;7.00;;;;;;;19.09;86.06;99079.17;181378;1260;43448;-62
2023/04/24 08:54:23;;;;;;;9.60;7.10;;;;;;;19.14;84.96;99077.57;181312;1260;42986;-63
2023/04/24 08:58:27;;;;;;;6.90;6.00;;;;;;;19.34;86.81;99081.91;181359;1260;58133;-62
2023/04/24 09:02:34;;;;;;;6.90;6.10;;;;;;;19.59;84.25;99077.95;181345;1260;43088;-63
2023/04/24 09:06:38;;;;;;;7.30;6.40;;;;;;;19.73;82.93;99079.05;181472;1261;43790;-62
2023/04/24 09:10:41;;;;;;;6.20;5.50;;;;;;;19.86;83.58;99081.41;181261;1263;43732;-63
2023/04/24 09:14:48;;;;;;;6.80;5.60;;;;;;;19.89;80.56;99082.70;181352;1260;43870;-62
2023/04/24 09:18:51;;;;;;;10.60;5.20;;;;;;;19.91;80.03;99085.81;181318;1260;57254;-63
2023/04/24 09:22:55;;;;;;;6.90;6.20;;;;;;;19.81;79.65;99083.03;181287;1261;48391;-63
2023/04/24 09:26:58;;;;;;;8.70;6.40;;;;;;;19.74;79.38;99077.08;181374;1260;43848;-63
2023/04/24 09:31:30;;;;;;;9.30;6.00;;;;;;;19.70;79.73;99076.48;181382;1260;43671;-63
2023/04/24 09:35:33;;;;;;;6.60;5.40;;;;;;;19.52;79.41;99089.77;181379;1263;43072;-62
2023/04/24 09:39:36;;;;;;;9.70;5.90;;;;;;;19.37;80.36;99092.14;181316;1264;57380;-62
2023/04/24 09:43:39;;;;;;;7.90;7.10;;;;;;;19.32;81.00;99085.81;181406;1260;43098;-63
2023/04/24 10:06:34;;;;;;;7.10;5.80;;;;;;;19.81;80.55;99062.60;181289;1261;43179;-62
2023/04/24 10:10:42;;;;;;;8.60;5.90;;;;;;;19.79;82.73;99062.73;181275;1262;44043;-63
2023/04/24 10:14:46;;;;;;;8.20;5.20;;;;;;;19.72;80.66;99061.05;181271;1262;43955;-63
2023/04/24 10:19:04;;;;;;;6.20;5.60;;;;;;;19.62;81.13;99061.63;181211;1262;43039;-65
2023/04/24 10:23:07;;;;;;;4.90;4.40;;;;;;;19.60;82.85;99066.08;181258;1264;58190;-62
2023/04/24 10:27:12;;;;;;;5.20;4.50;;;;;;;19.59;83.91;99076.05;181260;1262;43148;-62
2023/04/24 10:31:15;;;;;;;4.90;2.70;;;;;;;19.11;77.90;99090.63;181240;1261;43774;-62
2023/04/24 10:35:22;;;;;;;2.80;2.50;;;;;;;18.49;80.80;99090.10;181343;1261;44225;-62
2023/04/24 10:39:50;;;;;;;5.10;3.10;;;;;;;18.06;83.39;99092.98;181354;1260;43031;-62
2023/04/24 10:44:10;;;;;;;8.50;3.70;;;;;;;17.66;86.71;99096.13;180609;1263;58281;-89
2023/04/24 10:48:15;;;;;;;4.10;3.10;;;;;;;17.21;89.15;99092.96;180659;1264;44013;-89
2023/04/24 10:52:19;;;;;;;3.20;1.80;;;;;;;16.85;91.91;99098.22;180738;1263;43906;-89
2023/04/24 10:56:22;;;;;;;2.30;2.10;;;;;;;16.63;92.81;99099.75;180685;1263;44207;-89
2023/04/24 11:00:27;;;;;;;3.40;3.10;;;;;;;16.50;94.78;99102.36;180555;1264;44166;-89
2023/04/24 11:04:34;;;;;;;3.60;2.50;;;;;;;16.41;96.32;99103.48;180765;1263;57890;-88
2023/04/24 11:08:43;;;;;;;3.90;3.20;;;;;;;16.37;98.66;99106.97;180717;1263;44032;-89
2023/04/24 11:12:46;;;;;;;5.30;2.90;;;;;;;16.34;99.91;99109.04;180618;1263;44061;-88
2023/04/24 11:16:56;;;;;;;4.00;2.90;;;;;;;16.28;97.30;99113.19;180705;1263;43869;-89
2023/04/24 11:21:10;;;;;;;3.00;2.00;;;;;;;16.22;96.11;99119.66;180759;1263;43733;-89
2023/04/24 11:25:16;;;;;;;2.70;1.50;;;;;;;16.13;95.69;99122.42;180791;1263;59706;-89
2023/04/24 11:29:21;;;;;;;2.30;2.10;;;;;;;15.84;92.28;99122.14;180707;1264;43752;-89
2023/04/24 11:33:26;;;;;;;2.90;1.70;;;;;;;15.66;90.64;99127.76;180710;1264;44239;-89
2023/04/24 11:37:35;;;;;;;3.10;1.30;;;;;;;15.59;92.78;99132.38;180734;1264;43797;-89
2023/04/24 11:41:38;;;;;;;16.20;1.90;;;;;;;15.41;93.53;99141.77;180868;1263;43880;-89
2023/04/24 11:45:48;;;;;;;1.40;1.20;;;;;;;15.40;95.54;99138.40;180769;1264;59499;-89
2023/04/24 11:49:51;;;;;;;2.70;2.10;;;;;;;15.48;97.08;99141.35;180781;1263;44238;-89
2023/04/24 11:53:56;;;;;;;3.10;2.10;;;;;;;15.68;97.58;99139.54;180887;1263;43759;-89
2023/04/24 11:58:06;;;;;;;3.40;2.20;;;;;;;15.83;96.52;99139.60;180748;1262;44108;-89
2023/04/24 12:02:20;;;;;;;4.70;2.10;;;;;;;16.03;95.80;99139.35;180918;1264;47198;-89
2023/04/24 12:06:24;;;;;;;3.00;2.10;;;;;;;16.19;95.81;99141.02;180833;1262;59344;-90
2023/04/24 12:10:29;;;;;;;3.70;2.20;;;;;;;16.40;95.56;99139.98;180934;1264;44398;-89
2023/04/24 12:14:32;;;;;;;3.00;2.10;;;;;;;16.60;92.95;99139.36;180870;1262;44540;-89
2023/04/24 12:18:41;;;;;;;4.20;3.00;;;;;;;16.68;94.91;99136.75;180761;1264;44012;-88
2023/04/24 12:22:56;;;;;;;13.90;8.30;;;;;;;16.67;95.42;99133.65;181042;1262;43774;-88
2023/04/24 12:27:01;;;;;;;9.20;6.10;;;;;;;16.68;95.69;99126.27;180798;1263;59595;-88
2023/04/24 12:31:05;;;;;;;11.00;6.20;;;;;;;16.75;95.39;99116.39;180897;1262;44069;-89
2023/04/24 12:35:09;;;;;;;6.50;5.40;;;;;;;16.84;95.37;99116.27;180929;1262;43776;-89
2023/04/24 12:39:19;;;;;;;6.50;4.00;;;;;;;16.89;96.58;99111.46;180837;1262;43870;-89
2023/04/24 12:43:22;;;;;;;5.80;4.80;;;;;;;17.01;96.05;99104.11;180788;1262;43752;-89
2023/04/24 12:47:27;;;;;;;7.80;6.60;;;;;;;17.08;96.48;99102.21;180813;1262;58298;-89
2023/04/24 12:51:30;;;;;;;6.30;4.80;;;;;;;17.07;95.64;99101.02;180780;1262;44076;-89
2023/04/24 12:55:34;;;;;;;4.40;3.00;;;;;;;16.95;96.25;99103.98;180918;1262;43775;-89
2023/04/24 12:59:38;;;;;;;5.80;3.60;;;;;;;16.95;96.70;99107.90;180890;1262;44257;-89
2023/04/24 13:03:43;;;;;;;6.20;4.00;;;;;;;16.96;95.59;99103.49;180709;1263;44512;-89
2023/04/24 13:07:47;;;;;;;5.70;3.90;;;;;;;16.91;93.73;99100.30;180911;1262;60775;-89
2023/04/24 13:11:50;;;;;;;4.60;3.20;;;;;;;16.74;93.77;99102.27;180889;1262;43975;-89
2023/04/24 13:15:54;;;;;;;5.10;3.90;;;;;;;16.71;94.91;99098.36;180852;1262;44229;-89
2023/04/24 13:19:57;;;;;;;3.80;2.20;;;;;;;16.69;95.74;99097.59;180792;1262;44192;-90
2023/04/24 13:24:01;;;;;;;2.00;1.70;;;;;;;16.62;96.05;99093.95;180791;1262;44090;-89
2023/04/24 13:28:04;;;;;;;2.50;1.60;;;;;;;16.50;94.21;99090.63;180869;1262;58226;-89
2023/04/24 13:32:08;;;;;;;2.80;1.80;;;;;;;16.38;92.42;99092.48;180715;1262;44128;-85
2023/04/24 13:36:12;;;;;;;3.00;1.60;;;;;;;16.25;91.62;99092.20;180824;1263;43788;-86
2023/04/24 13:40:15;;;;;;;2.40;2.00;;;;;;;16.12;92.73;99092.90;180783;1262;44018;-85
2023/04/24 13:44:20;;;;;;;5.70;2.30;;;;;;;15.98;93.99;99092.23;180592;1263;43863;-85
2023/04/24 13:48:23;;;;;;;2.20;2.00;;;;;;;15.85;95.85;99086.41;180548;1263;58606;-89
2023/04/24 13:52:26;;;;;;;4.10;2.40;;;;;;;15.84;98.21;99086.89;180508;1262;44041;-84
2023/04/24 13:56:29;;;;;;;5.70;1.80;;;;;;;15.81;99.61;99085.73;180660;1266;43808;-85
2023/04/24 14:00:32;;;;;;;2.00;1.10;;;;;;;15.79;99.97;99085.61;180674;1262;44097;-85
2023/04/24 14:04:35;;;;;;;4.00;1.70;;;;;;;15.66;99.73;99087.02;180612;1262;44541;-85
2023/04/24 14:08:38;;;;;;;3.10;1.80;;;;;;;15.64;99.85;99084.98;180831;1262;60899;-85
2023/04/24 14:12:42;;;;;;;2.30;1.20;;;;;;;15.71;100.00;99083.20;180566;1263;43977;-86
2023/04/24 14:16:45;;;;;;;3.60;1.60;;;;;;;15.82;99.92;99078.98;180523;1264;44608;-85
2023/04/24 14:20:48;;;;;;;3.60;2.00;;;;;;;15.93;98.86;99078.96;180468;1263;45818;-85
2023/04/24 14:24:51;;;;;;;2.00;1.60;;;;;;;16.00;99.48;99080.87;180493;1263;43798;-85
2023/04/24 14:28:54;;;;;;;2.00;0.90;;;;;;;16.08;97.98;99076.19;180796;1262;59255;-85
2023/04/24 14:33:16;;;;;;;5.20;1.90;;;;;;;16.16;99.10;99072.27;180786;1263;43854;-87
2023/04/24 14:37:19;;;;;;;1.80;1.00;;;;;;;16.27;97.51;99068.81;180850;1262;43868;-88
2023/04/24 14:41:22;;;;;;;4.20;0.90;;;;;;;16.34;97.21;99067.84;180701;1262;43856;-88
2023/04/24 14:45:26;;;;;;;1.30;1.20;;;;;;;16.36;96.95;99064.44;180661;1264;44124;-89
2023/04/24 14:49:30;;;;;;;2.80;1.40;;;;;;;16.41;94.90;99070.30;180669;1262;59597;-90
2023/04/24 14:53:34;;;;;;;4.20;1.40;;;;;;;16.40;95.25;99070.58;180845;1262;43961;-89
2023/04/24 14:57:37;;;;;;;2.60;1.60;;;;;;;16.47;96.35;99071.37;180861;1262;44041;-89
2023/04/24 15:01:43;;;;;;;2.90;1.70;;;;;;;16.54;97.08;99074.36;180815;1262;44187;-90
2023/04/24 15:05:47;;;;;;;2.50;2.00;;;;;;;16.61;96.12;99076.80;180809;1262;43814;-89
2023/04/24 15:09:50;;;;;;;4.20;2.00;;;;;;;16.58;95.59;99080.30;180849;1262;58147;-90
2023/04/24 15:13:55;;;;;;;3.60;2.70;;;;;;;16.55;95.86;99078.20;180742;1262;44037;-89
2023/04/24 15:17:58;;;;;;;6.60;2.70;;;;;;;16.40;96.30;99078.83;180805;1262;44170;-90
2023/04/24 15:22:02;;;;;;;3.70;2.60;;;;;;;16.25;98.03;99076.22;180710;1264;43901;-91
2023/04/24 15:26:06;;;;;;;4.10;3.30;;;;;;;16.25;99.50;99072.34;180842;1264;43994;-89
2023/04/24 15:30:10;;;;;;;8.80;4.90;;;;;;;16.19;99.69;99071.63;180719;1262;59208;-89
2023/04/24 15:34:13;;;;;;;31.90;22.60;;;;;;;16.12;99.59;99060.27;180659;1262;43937;-88
2023/04/24 15:38:16;;;;;;;13.70;9.90;;;;;;;16.19;98.21;99048.14;180803;1262;44152;-89
2023/04/24 15:42:20;;;;;;;20.10;10.50;;;;;;;16.17;97.69;99044.53;180745;1263;44310;-88
2023/04/24 15:46:23;;;;;;;12.30;7.00;;;;;;;16.14;99.25;99048.04;180776;1262;44260;-89
2023/04/24 15:50:26;;;;;;;6.70;3.70;;;;;;;16.11;99.47;99046.84;180579;1264;59525;-85
2023/04/24 15:54:29;;;;;;;5.40;3.20;;;;;;;16.14;100.00;99048.11;180668;1262;44186;-87
2023/04/24 15:58:33;;;;;;;6.10;3.80;;;;;;;16.08;99.87;99055.41;180772;1262;44076;-86
2023/04/24 16:02:37;;;;;;;5.00;4.60;;;;;;;16.04;100.00;99066.47;180728;1264;44485;-86
2023/04/24 16:06:41;;;;;;;6.50;4.20;;;;;;;16.08;100.00;99074.38;180628;1262;44208;-86
2023/04/24 16:10:45;;;;;;;7.60;4.80;;;;;;;16.20;100.00;99078.25;180631;1262;59551;-86
2023/04/24 16:14:49;;;;;;;8.10;3.60;;;;;;;16.25;100.00;99082.42;180804;1262;44118;-87
2023/04/24 16:18:52;;;;;;;5.60;3.50;;;;;;;16.31;100.00;99088.21;180691;1262;44126;-87
2023/04/24 16:22:55;;;;;;;5.60;3.20;;;;;;;16.35;100.00;99087.63;180783;1262;44167;-88
2023/04/24 16:26:59;;;;;;;6.40;3.80;;;;;;;16.36;100.00;99082.52;180852;1262;44153;-87
2023/04/24 16:31:02;;;;;;;6.40;3.10;;;;;;;16.39;100.00;99081.92;180756;1262;58654;-87
2023/04/24 16:35:07;;;;;;;4.30;3.00;;;;;;;16.36;100.00;99078.42;180657;1262;43797;-89
2023/04/24 16:39:11;;;;;;;6.10;4.30;;;;;;;16.35;100.00;99081.02;180813;1262;43775;-87
2023/04/24 16:43:14;;;;;;;7.30;5.50;;;;;;;16.31;100.00;99083.88;180813;1262;43823;-87
2023/04/24 16:47:18;;;;;;;19.00;9.60;;;;;;;16.30;100.00;99085.98;180765;1262;43850;-87
2023/04/24 16:51:21;;;;;;;24.30;17.20;;;;;;;16.28;100.00;99085.09;180855;1262;58315;-87
2023/04/24 16:55:24;;;;;;;28.90;17.70;;;;;;;16.24;100.00;99083.39;180889;1264;44174;-89
2023/04/24 16:59:32;;;;;;;22.10;13.90;;;;;;;16.27;100.00;99085.45;180743;1262;44037;-89
2023/04/24 17:03:37;;;;;;;13.60;8.70;;;;;;;16.25;100.00;99086.62;180902;1264;44057;-89
2023/04/24 17:07:42;;;;;;;8.90;7.10;;;;;;;16.20;100.00;99094.59;180768;1264;43897;-89
2023/04/24 17:11:45;;;;;;;9.80;5.80;;;;;;;16.10;100.00;99093.99;180777;1263;59637;-88
2023/04/24 17:15:52;;;;;;;5.80;4.80;;;;;;;16.04;100.00;99102.46;180725;1264;43939;-88
2023/04/24 17:19:55;;;;;;;6.40;4.30;;;;;;;15.95;100.00;99103.75;180711;1264;43857;-88
2023/04/24 17:24:02;;;;;;;6.90;4.60;;;;;;;15.89;100.00;99107.13;180706;1263;47090;-90
2023/04/24 17:28:20;;;;;;;5.70;4.50;;;;;;;15.79;100.00;99112.73;180685;1264;44251;-90
2023/04/24 17:32:24;;;;;;;5.10;2.70;;;;;;;15.69;100.00;99117.19;180768;1263;57952;-90
2023/04/24 17:36:31;;;;;;;5.70;2.90;;;;;;;15.65;100.00;99116.73;180785;1264;44041;-90
2023/04/24 17:40:36;;;;;;;5.60;4.30;;;;;;;15.57;100.00;99117.06;180705;1264;44055;-88
2023/04/24 17:44:41;;;;;;;9.20;5.40;;;;;;;15.42;100.00;99111.34;180796;1263;44072;-88
2023/04/24 17:48:45;;;;;;;3.90;3.30;;;;;;;15.24;100.00;99121.66;180869;1264;47369;-90
2023/04/24 17:52:51;;;;;;;4.70;3.20;;;;;;;15.09;99.77;99122.27;180779;1262;58288;-89
2023/04/24 17:56:55;;;;;;;4.70;2.60;;;;;;;14.99;99.67;99134.20;180794;1264;44319;-89
2023/04/24 18:00:58;;;;;;;3.00;1.80;;;;;;;14.87;98.55;99136.73;180737;1262;44202;-88
2023/04/24 18:05:03;;;;;;;5.10;2.50;;;;;;;14.75;97.34;99132.41;180808;1264;43907;-86
2023/04/24 18:09:07;;;;;;;2.70;2.00;;;;;;;14.62;96.54;99133.95;180906;1262;44021;-89
2023/04/24 18:13:11;;;;;;;2.80;1.70;;;;;;;14.51;97.02;99133.98;180843;1264;57173;-89
2023/04/24 18:17:15;;;;;;;3.50;2.10;;;;;;;14.44;97.13;99134.38;180844;1262;44197;-88
2023/04/24 18:21:19;;;;;;;1.60;1.50;;;;;;;14.37;96.28;99136.81;180838;1263;46664;-88
2023/04/24 18:25:25;;;;;;;2.90;2.40;;;;;;;14.21;95.81;99134.08;180657;1262;44180;-90
2023/04/24 18:29:29;;;;;;;5.60;3.90;;;;;;;14.04;96.16;99140.27;180765;1262;44025;-89
2023/04/24 18:42:54;;;;;;;9.60;4.60;;;;;;;13.60;99.84;99154.78;174493;1262;43803;-89
2023/04/24 18:46:58;;;;;;;6.90;4.70;;;;;;;13.58;100.00;99155.98;180803;1262;43806;-88
2023/04/24 18:51:01;;;;;;;6.70;4.10;;;;;;;13.53;100.00;99163.09;180841;1262;47430;-87
2023/04/24 18:55:06;;;;;;;5.90;3.60;;;;;;;13.47;100.00;99164.45;180799;1262;57569;-89
2023/04/24 18:59:09;;;;;;;5.80;3.20;;;;;;;13.45;100.00;99168.56;180809;1262;44256;-88
2023/04/24 19:03:13;;;;;;;10.10;4.60;;;;;;;13.46;100.00;99170.23;180443;1262;422667;-88
2023/04/24 19:07:18;;;;;;;5.90;4.50;;;;;;;13.47;100.00;99173.70;180880;1262;43908;-86
2023/04/24 19:11:22;;;;;;;7.80;3.90;;;;;;;13.47;100.00;99174.94;180944;1262;43741;-88
2023/04/24 19:15:27;;;;;;;11.40;7.00;;;;;;;13.48;100.00;99175.20;180770;1262;59493;-89
2023/04/24 19:19:35;;;;;;;11.20;6.10;;;;;;;13.46;100.00;99178.65;181031;1262;83366;-62
2023/04/24 19:23:39;;;;;;;12.30;3.90;;;;;;;13.42;100.00;99185.48;180728;1262;43915;-87
2023/04/24 19:27:43;;;;;;;6.20;4.60;;;;;;;13.36;100.00;99185.02;180715;1262;43740;-86
2023/04/24 19:31:46;;;;;;;7.20;5.30;;;;;;;13.30;100.00;99190.02;180693;1262;44011;-88
2023/04/24 19:35:50;;;;;;;12.90;7.60;;;;;;;13.26;100.00;99191.59;180813;1264;59522;-87
2023/04/24 19:39:53;;;;;;;5.90;4.40;;;;;;;13.21;100.00;99195.81;180708;1262;44152;-86
2023/04/24 19:43:57;;;;;;;7.40;4.00;;;;;;;13.13;100.00;99196.28;180720;1262;44085;-86
2023/04/24 19:48:01;;;;;;;6.10;3.80;;;;;;;13.04;100.00;99192.64;180454;1262;43880;-88